Time,TemperatureF,DewpointF,PressureIn,WindDirection,WindDirectionDegrees,WindSpeedMPH,WindSpeedGustMPH,Humidity,HourlyPrecipIn,Conditions,Clouds,dailyrainin,SoftwareType,DateUTC
2017-02-23 00:02:00,56.2,52.0,30.18,WSW,248,1.0,1.0,86,0.00,,,0.00,weatherlink.com 1.10,2017-02-23 05:02:00,
2017-02-23 00:17:00,55.8,52.0,30.18,ENE,62,0.0,0.0,87,0.00,,,0.00,weatherlink.com 1.10,2017-02-23 05:17:00,
2017-02-23 00:32:00,55.2,51.0,30.17,ENE,64,0.0,2.0,87,0.00,,,0.00,weatherlink.com 1.10,2017-02-23 05:32:00,
2017-02-23 00:47:00,55.0,52.0,30.17,ENE,63,0.0,2.0,89,0.00,,,0.00,weatherlink.com 1.10,2017-02-23 05:47:00,
2017-02-23 01:02:00,54.7,52.0,30.18,ENE,62,2.0,2.0,89,0.00,,,0.00,weatherlink.com 1.10,2017-02-23 06:02:00,
2017-02-23 01:17:00,54.5,51.0,30.17,ENE,63,0.0,2.0,89,0.00,,,0.00,weatherlink.com 1.10,2017-02-23 06:17:00,
2017-02-23 01:32:00,54.3,52.0,30.16,NE,44,1.0,3.0,90,0.00,,,0.00,weatherlink.com 1.10,2017-02-23 06:32:00,
2017-02-23 01:47:00,54.2,51.0,30.17,NE,44,0.0,0.0,89,0.00,,,0.00,weatherlink.com 1.10,2017-02-23 06:47:00,
2017-02-23 02:02:00,53.7,51.0,30.16,NE,44,1.0,2.0,90,0.00,,,0.00,weatherlink.com 1.10,2017-02-23 07:02:00,
2017-02-23 02:17:00,53.5,51.0,30.16,NE,44,0.0,2.0,91,0.00,,,0.00,weatherlink.com 1.10,2017-02-23 07:17:00,
2017-02-23 02:32:00,53.6,51.0,30.15,SW,231,0.0,2.0,92,0.00,,,0.00,weatherlink.com 1.10,2017-02-23 07:32:00,
2017-02-23 02:47:00,53.9,51.0,30.15,SW,231,0.0,0.0,91,0.00,,,0.00,weatherlink.com 1.10,2017-02-23 07:47:00,
2017-02-23 03:02:00,54.0,52.0,30.14,WSW,240,0.0,3.0,92,0.00,,,0.00,weatherlink.com 1.10,2017-02-23 08:02:00,
2017-02-23 03:17:00,54.1,52.0,30.14,ENE,66,0.0,0.0,91,0.00,,,0.00,weatherlink.com 1.10,2017-02-23 08:17:00,
2017-02-23 03:32:00,53.9,51.0,30.14,ENE,66,0.0,0.0,91,0.00,,,0.00,weatherlink.com 1.10,2017-02-23 08:32:00,
2017-02-23 03:47:00,53.8,51.0,30.15,ENE,66,0.0,0.0,91,0.00,,,0.00,weatherlink.com 1.10,2017-02-23 08:47:00,
2017-02-23 04:02:00,53.8,52.0,30.15,ENE,66,0.0,1.0,92,0.00,,,0.00,weatherlink.com 1.10,2017-02-23 09:02:00,
2017-02-23 04:17:00,54.1,52.0,30.15,ENE,67,0.0,1.0,92,0.00,,,0.00,weatherlink.com 1.10,2017-02-23 09:17:00,
2017-02-23 04:32:00,54.3,52.0,30.16,ENE,67,0.0,0.0,92,0.00,,,0.00,weatherlink.com 1.10,2017-02-23 09:32:00,
2017-02-23 04:47:00,54.2,52.0,30.16,NE,54,3.0,3.0,92,0.00,,,0.00,weatherlink.com 1.10,2017-02-23 09:47:00,
2017-02-23 05:02:00,54.8,52.0,30.16,NE,51,2.0,3.0,91,0.00,,,0.00,weatherlink.com 1.10,2017-02-23 10:02:00,
2017-02-23 05:17:00,54.4,52.0,30.16,NE,53,0.0,0.0,90,0.00,,,0.00,weatherlink.com 1.10,2017-02-23 10:17:00,
2017-02-23 05:32:00,53.9,51.0,30.16,NE,52,0.0,0.0,91,0.00,,,0.00,weatherlink.com 1.10,2017-02-23 10:32:00,
2017-02-23 05:47:00,53.5,51.0,30.17,West,278,0.0,1.0,92,0.00,,,0.00,weatherlink.com 1.10,2017-02-23 10:47:00,
2017-02-23 06:02:00,53.4,51.0,30.17,West,280,0.0,1.0,92,0.00,,,0.00,weatherlink.com 1.10,2017-02-23 11:02:00,
2017-02-23 06:17:00,53.3,51.0,30.18,West,280,0.0,0.0,92,0.00,,,0.00,weatherlink.com 1.10,2017-02-23 11:17:00,
2017-02-23 06:33:00,52.7,51.0,30.18,NE,49,0.0,0.0,92,0.00,,,0.00,weatherlink.com 1.10,2017-02-23 11:33:00,
2017-02-23 06:47:00,52.4,51.0,30.18,NE,49,1.0,1.0,93,0.00,,,0.00,weatherlink.com 1.10,2017-02-23 11:47:00,
2017-02-23 07:02:00,52.6,51.0,30.19,NE,49,0.0,1.0,93,0.00,,,0.00,weatherlink.com 1.10,2017-02-23 12:02:00,
2017-02-23 07:17:00,52.3,50.0,30.18,NE,49,1.0,1.0,93,0.00,,,0.00,weatherlink.com 1.10,2017-02-23 12:17:00,
2017-02-23 07:32:00,52.4,51.0,30.19,NE,48,0.0,2.0,94,0.00,,,0.00,weatherlink.com 1.10,2017-02-23 12:32:00,
2017-02-23 07:48:00,52.6,51.0,30.19,NW,315,0.0,1.0,94,0.00,,,0.00,weatherlink.com 1.10,2017-02-23 12:48:00,
2017-02-23 08:03:00,52.6,51.0,30.19,NW,314,0.0,1.0,93,0.00,,,0.00,weatherlink.com 1.10,2017-02-23 13:03:00,
2017-02-23 08:18:00,52.9,51.0,30.19,SW,229,1.0,4.0,94,0.00,,,0.00,weatherlink.com 1.10,2017-02-23 13:18:00,
2017-02-23 08:33:00,54.3,52.0,30.18,ENE,72,1.0,2.0,92,0.00,,,0.00,weatherlink.com 1.10,2017-02-23 13:33:00,
2017-02-23 08:48:00,56.2,53.0,30.19,WSW,256,0.0,7.0,88,0.00,,,0.00,weatherlink.com 1.10,2017-02-23 13:48:00,
2017-02-23 09:03:00,56.3,53.0,30.19,West,259,1.0,1.0,88,0.00,,,0.00,weatherlink.com 1.10,2017-02-23 14:03:00,
2017-02-23 09:18:00,56.4,53.0,30.20,West,259,4.0,4.0,87,0.00,,,0.00,weatherlink.com 1.10,2017-02-23 14:18:00,
2017-02-23 09:33:00,57.1,53.0,30.20,WSW,258,0.0,3.0,86,0.00,,,0.00,weatherlink.com 1.10,2017-02-23 14:33:00,
2017-02-23 09:48:00,58.3,54.0,30.20,WSW,240,2.0,6.0,84,0.00,,,0.00,weatherlink.com 1.10,2017-02-23 14:48:00,
2017-02-23 10:03:00,60.1,54.0,30.20,West,260,1.0,5.0,81,0.00,,,0.00,weatherlink.com 1.10,2017-02-23 15:03:00,
2017-02-23 10:18:00,61.6,55.0,30.20,West,263,0.0,3.0,78,0.00,,,0.00,weatherlink.com 1.10,2017-02-23 15:18:00,